Teresa Oetker — D5PF8 — position and weather

sailwx.info

Track history (hours):
 
Tides and Currents Weather Stations Pressure Air Temp Water Temp Dewpoint Dewpoint Depression Visibility Wind Speed Wind Dir Waves Ship Positions

Teresa Oetker

Last reported at 2018-Jan-22 15:58 UTC. Time now 2018-Jan-23 02:21 UTC.
Position N 30°57' W 011°31'.

Length 190 m; draft 8.6 m.

Type: Cargo ship. MMSI: 636092813.

Date/timePositionNaut miles runAvg speedWind from/ knotsBaromVisibWave heightAir tempDewpointWater temp
2018-Jan-22 15:58N 30°57' W 011°31'3512.7
2018-Jan-22 13:12N 31°26' W 011°08'312.9
2018-Jan-22 12:59N 31°28' W 011°06'613.4
2018-Jan-22 12:30N 31°32' W 011°00'5413.0
2018-Jan-22 08:23N 32°11' W 010°17'713.7
2018-Jan-22 07:51N 32°16' W 010°11'3113.2
2018-Jan-22 05:31N 32°39' W 009°45'012.9
2018-Jan-22 05:30N 32°39' W 009°45'1513.4
2018-Jan-22 04:25N 32°49' W 009°33'613.4
2018-Jan-22 03:59N 32°54' W 009°29'613.6
2018-Jan-22 03:30N 32°58' W 009°23'13313.6
2018-Jan-21 17:45N 34°35' W 007°33'513.5
2018-Jan-21 17:23N 34°38' W 007°29'12212.1
2018-Jan-21 07:18N 35°57' W 005°34'3 8.9
2018-Jan-21 07:00N 35°58' W 005°31'5 9.2
2018-Jan-21 06:31N 36°00' W 005°26'5 9.8
2018-Jan-21 06:01N 36°04' W 005°23'4 3.1
2018-Jan-21 04:46N 36°08' W 005°22'0 0.1
2018-Jan-21 03:16N 36°08' W 005°22'0 0.2
2018-Jan-21 02:40N 36°08' W 005°22'0 0.2
2018-Jan-21 02:25N 36°08' W 005°22'0 0.1
2018-Jan-21 01:52N 36°08' W 005°22'0 0.1
2018-Jan-21 00:16N 36°08' W 005°22'0 0.0
2018-Jan-20 23:40N 36°08' W 005°22'0 0.0
2018-Jan-20 23:16N 36°08' W 005°22'0 0.0
2018-Jan-20 22:52N 36°08' W 005°22'0 0.1
2018-Jan-20 17:28N 36°07' W 005°22'2 3.9
2018-Jan-20 16:57N 36°05' W 005°21'1 1.6
2018-Jan-20 16:18N 36°06' W 005°20'1 4.3
2018-Jan-20 16:00N 36°06' W 005°19'1 1.5
2018-Jan-20 15:30N 36°05' W 005°18'2 4.4
2018-Jan-20 15:00N 36°06' W 005°15'2 3.7
2018-Jan-20 14:30N 36°05' W 005°17'2 3.8
2018-Jan-20 14:00N 36°04' W 005°19'2 4.7
2018-Jan-20 13:30N 36°05' W 005°22'2 4.6
2018-Jan-20 12:57N 36°07' W 005°23'3 2.6
2018-Jan-20 11:54N 36°05' W 005°21'1 0.9
2018-Jan-20 11:18N 36°05' W 005°21'1 3.7
2018-Jan-20 11:00N 36°05' W 005°20'2 4.0
2018-Jan-20 10:30N 36°05' W 005°17'31 4.4
2018-Jan-20 03:26N 36°16' W 004°41'3 6.9
2018-Jan-20 03:00N 36°17' W 004°38'0 0.8
2018-Jan-20 02:25N 36°17' W 004°38'0 0.7
2018-Jan-20 02:00N 36°17' W 004°37'1 2.5
2018-Jan-20 01:30N 36°18' W 004°36'1 1.5
2018-Jan-20 01:00N 36°18' W 004°37'1 1.3
2018-Jan-20 00:30N 36°17' W 004°37'1 1.6
2018-Jan-20 00:01N 36°17' W 004°37'1 1.6
2018-Jan-19 23:29N 36°16' W 004°36'0 0.4
2018-Jan-19 22:59N 36°16' W 004°36'1 2.3
2018-Jan-19 22:30N 36°16' W 004°35'1 2.0
2018-Jan-19 21:50N 36°16' W 004°36'5 1.7
2018-Jan-19 18:50N 36°17' W 004°42'0 0.8
2018-Jan-19 18:20N 36°17' W 004°42'0 1.4
2018-Jan-19 18:00N 36°16' W 004°42'1 1.5
2018-Jan-19 17:28N 36°17' W 004°42'1 1.5
2018-Jan-19 16:58N 36°17' W 004°43'2 2.5
2018-Jan-19 16:21N 36°18' W 004°44'1 2.0
2018-Jan-19 16:00N 36°17' W 004°45'1 2.2
2018-Jan-19 15:26N 36°16' W 004°46'1 1.7
2018-Jan-19 15:00N 36°16' W 004°46'2 2.9
2018-Jan-19 14:10N 36°13' W 004°47'1 3.1
2018-Jan-19 13:58N 36°13' W 004°48'2 3.9
2018-Jan-19 13:26N 36°11' W 004°48'3 7.2
2018-Jan-19 13:00N 36°08' W 004°46'611.5
2018-Jan-19 12:30N 36°09' W 004°38'  
Track history (hours):
 
Tides and Currents Weather Stations Pressure Air Temp Water Temp Dewpoint Dewpoint Depression Visibility Wind Speed Wind Dir Waves Ship Positions

Teresa Oetker

Last reported at 2018-Jan-22 15:58 UTC. Time now 2018-Jan-23 02:21 UTC.
Position N 30°57' W 011°31'.

Length 190 m; draft 8.6 m.

Type: Cargo ship. MMSI: 636092813.

Date/timePositionNaut miles runAvg speedWind from/ knotsBaromVisibWave heightAir tempDewpointWater temp
2018-Jan-22 15:58N 30°57' W 011°31'3512.7
2018-Jan-22 13:12N 31°26' W 011°08'312.9
2018-Jan-22 12:59N 31°28' W 011°06'613.4
2018-Jan-22 12:30N 31°32' W 011°00'5413.0
2018-Jan-22 08:23N 32°11' W 010°17'713.7
2018-Jan-22 07:51N 32°16' W 010°11'3113.2
2018-Jan-22 05:31N 32°39' W 009°45'012.9
2018-Jan-22 05:30N 32°39' W 009°45'1513.4
2018-Jan-22 04:25N 32°49' W 009°33'613.4
2018-Jan-22 03:59N 32°54' W 009°29'613.6
2018-Jan-22 03:30N 32°58' W 009°23'13313.6
2018-Jan-21 17:45N 34°35' W 007°33'513.5
2018-Jan-21 17:23N 34°38' W 007°29'12212.1
2018-Jan-21 07:18N 35°57' W 005°34'3 8.9
2018-Jan-21 07:00N 35°58' W 005°31'5 9.2
2018-Jan-21 06:31N 36°00' W 005°26'5 9.8
2018-Jan-21 06:01N 36°04' W 005°23'4 3.1
2018-Jan-21 04:46N 36°08' W 005°22'0 0.1
2018-Jan-21 03:16N 36°08' W 005°22'0 0.2
2018-Jan-21 02:40N 36°08' W 005°22'0 0.2
2018-Jan-21 02:25N 36°08' W 005°22'0 0.1
2018-Jan-21 01:52N 36°08' W 005°22'0 0.1
2018-Jan-21 00:16N 36°08' W 005°22'0 0.0
2018-Jan-20 23:40N 36°08' W 005°22'0 0.0
2018-Jan-20 23:16N 36°08' W 005°22'0 0.0
2018-Jan-20 22:52N 36°08' W 005°22'0 0.1
2018-Jan-20 17:28N 36°07' W 005°22'2 3.9
2018-Jan-20 16:57N 36°05' W 005°21'1 1.6
2018-Jan-20 16:18N 36°06' W 005°20'1 4.3
2018-Jan-20 16:00N 36°06' W 005°19'1 1.5
2018-Jan-20 15:30N 36°05' W 005°18'2 4.4
2018-Jan-20 15:00N 36°06' W 005°15'2 3.7
2018-Jan-20 14:30N 36°05' W 005°17'2 3.8
2018-Jan-20 14:00N 36°04' W 005°19'2 4.7
2018-Jan-20 13:30N 36°05' W 005°22'2 4.6
2018-Jan-20 12:57N 36°07' W 005°23'3 2.6
2018-Jan-20 11:54N 36°05' W 005°21'1 0.9
2018-Jan-20 11:18N 36°05' W 005°21'1 3.7
2018-Jan-20 11:00N 36°05' W 005°20'2 4.0
2018-Jan-20 10:30N 36°05' W 005°17'31 4.4
2018-Jan-20 03:26N 36°16' W 004°41'3 6.9
2018-Jan-20 03:00N 36°17' W 004°38'0 0.8
2018-Jan-20 02:25N 36°17' W 004°38'0 0.7
2018-Jan-20 02:00N 36°17' W 004°37'1 2.5
2018-Jan-20 01:30N 36°18' W 004°36'1 1.5
2018-Jan-20 01:00N 36°18' W 004°37'1 1.3
2018-Jan-20 00:30N 36°17' W 004°37'1 1.6
2018-Jan-20 00:01N 36°17' W 004°37'1 1.6
2018-Jan-19 23:29N 36°16' W 004°36'0 0.4
2018-Jan-19 22:59N 36°16' W 004°36'1 2.3
2018-Jan-19 22:30N 36°16' W 004°35'1 2.0
2018-Jan-19 21:50N 36°16' W 004°36'5 1.7
2018-Jan-19 18:50N 36°17' W 004°42'0 0.8
2018-Jan-19 18:20N 36°17' W 004°42'0 1.4
2018-Jan-19 18:00N 36°16' W 004°42'1 1.5
2018-Jan-19 17:28N 36°17' W 004°42'1 1.5
2018-Jan-19 16:58N 36°17' W 004°43'2 2.5
2018-Jan-19 16:21N 36°18' W 004°44'1 2.0
2018-Jan-19 16:00N 36°17' W 004°45'1 2.2
2018-Jan-19 15:26N 36°16' W 004°46'1 1.7
2018-Jan-19 15:00N 36°16' W 004°46'2 2.9
2018-Jan-19 14:10N 36°13' W 004°47'1 3.1
2018-Jan-19 13:58N 36°13' W 004°48'2 3.9
2018-Jan-19 13:26N 36°11' W 004°48'3 7.2
2018-Jan-19 13:00N 36°08' W 004°46'611.5
2018-Jan-19 12:30N 36°09' W 004°38'  

Dump ship's entire track history